KBFD

Bradford Regional Airport

Bradford, Pennsylvania, USA
METAR KBFD 160553Z AUTO VRB04KT 10SM FEW043 FEW065 OVC080 02/M03 A3001 RMK AO2 RAE0456 SLP174 P0000 60001 T00221033 10039 20017 58018
Observed Flight Rules
Dec-16 @ 05:53 UTC (an hour ago) Visual Flight Rules
Wind Visibility Clouds
Variable at 4 knots 10 miles
  • Few at 4,300' AGL
  • Few at 6,500' AGL
  • Overcast at 8,000' AGL
Temperatures Readings Precipitation
Current 2°C / 36°F
Dewpoint -3°C / 27°F
Humidity 70%
Altimeter 30.01" Hg
Pressure 1017.4 hPa
Elevation 647
Current Rain 0.005
METAR KBFD 160553Z AUTO VRB04KT 10SM FEW043 FEW065 OVC080 02/M03 A3001 RMK AO2 RAE0456 SLP174 P0000 60001 T00221033 10039 20017 58018
Observed Flight Rules
Dec-16 @ 05:53 UTC
(an hour ago)
VFR
Wind Visibility
Variable at 4 knots 10 miles
Clouds
  • Few at 4,300' AGL
  • Few at 6,500' AGL
  • Overcast at 8,000' AGL
Temperature Dewpoint
2°C / 36°F -3°C / 27°F
Humidity Altimeter Pressure
70% 30.01" Hg 1017.4 hPa
Current Rain
0.005